sensor_id;sensor_type;location;lat;lon;timestamp;P1;P2;P0
69222;PMS7003;56514;51.816;-0.026;2023-02-28T00:02:16;0.00;0.00;0.00
69222;PMS7003;56514;51.816;-0.026;2023-02-28T00:05:27;0.33;0.33;0.00
69222;PMS7003;56514;51.816;-0.026;2023-02-28T00:08:32;0.00;0.00;0.00
69222;PMS7003;56514;51.816;-0.026;2023-02-28T00:11:39;1.00;1.00;1.00
69222;PMS7003;56514;51.816;-0.026;2023-02-28T00:14:49;1.00;1.00;1.00
69222;PMS7003;56514;51.816;-0.026;2023-02-28T00:17:58;0.00;0.00;0.00
69222;PMS7003;56514;51.816;-0.026;2023-02-28T00:21:08;0.67;0.67;0.67
69222;PMS7003;56514;51.816;-0.026;2023-02-28T00:24:18;0.67;0.67;0.67
69222;PMS7003;56514;51.816;-0.026;2023-02-28T00:27:27;0.00;0.00;0.00
69222;PMS7003;56514;51.816;-0.026;2023-02-28T00:30:36;0.00;0.00;0.00
69222;PMS7003;56514;51.816;-0.026;2023-02-28T00:33:45;0.00;0.00;0.00
69222;PMS7003;56514;51.816;-0.026;2023-02-28T00:36:29;0.00;0.00;0.00
69222;PMS7003;56514;51.816;-0.026;2023-02-28T00:39:15;0.00;0.00;0.00
69222;PMS7003;56514;51.816;-0.026;2023-02-28T00:42:04;1.00;0.00;0.00
69222;PMS7003;56514;51.816;-0.026;2023-02-28T00:44:51;0.33;0.33;0.33
69222;PMS7003;56514;51.816;-0.026;2023-02-28T00:47:36;0.00;0.00;0.00
69222;PMS7003;56514;51.816;-0.026;2023-02-28T00:50:23;1.00;1.00;1.00
69222;PMS7003;56514;51.816;-0.026;2023-02-28T00:53:08;1.00;1.00;1.00
69222;PMS7003;56514;51.816;-0.026;2023-02-28T00:55:52;1.00;1.00;0.75
69222;PMS7003;56514;51.816;-0.026;2023-02-28T00:58:37;1.00;1.00;1.00
69222;PMS7003;56514;51.816;-0.026;2023-02-28T01:01:22;0.00;0.00;0.00
69222;PMS7003;56514;51.816;-0.026;2023-02-28T01:04:06;0.00;0.00;0.00
69222;PMS7003;56514;51.816;-0.026;2023-02-28T01:06:51;0.00;0.00;0.00
69222;PMS7003;56514;51.816;-0.026;2023-02-28T01:09:36;0.00;0.00;0.00
69222;PMS7003;56514;51.816;-0.026;2023-02-28T01:12:21;0.33;0.33;0.33
69222;PMS7003;56514;51.816;-0.026;2023-02-28T01:15:06;1.00;1.00;1.00
69222;PMS7003;56514;51.816;-0.026;2023-02-28T01:17:51;1.00;1.00;1.00
69222;PMS7003;56514;51.816;-0.026;2023-02-28T01:20:36;0.50;0.50;0.50
69222;PMS7003;56514;51.816;-0.026;2023-02-28T01:23:22;0.25;0.25;0.00
69222;PMS7003;56514;51.816;-0.026;2023-02-28T01:26:09;0.00;0.00;0.00
69222;PMS7003;56514;51.816;-0.026;2023-02-28T01:28:57;0.67;0.67;0.00
69222;PMS7003;56514;51.816;-0.026;2023-02-28T01:31:43;0.00;0.00;0.00
69222;PMS7003;56514;51.816;-0.026;2023-02-28T01:34:28;0.67;0.67;0.67
69222;PMS7003;56514;51.816;-0.026;2023-02-28T01:37:12;0.00;0.00;0.00
69222;PMS7003;56514;51.816;-0.026;2023-02-28T01:39:57;0.25;0.25;0.00
69222;PMS7003;56514;51.816;-0.026;2023-02-28T01:42:42;0.00;0.00;0.00
69222;PMS7003;56514;51.816;-0.026;2023-02-28T01:45:28;0.00;0.00;0.00
69222;PMS7003;56514;51.816;-0.026;2023-02-28T01:48:14;0.00;0.00;0.00
69222;PMS7003;56514;51.816;-0.026;2023-02-28T01:51:01;0.25;0.25;0.25
69222;PMS7003;56514;51.816;-0.026;2023-02-28T01:53:55;0.00;0.00;0.00
69222;PMS7003;56514;51.816;-0.026;2023-02-28T01:56:52;0.67;0.67;0.33
69222;PMS7003;56514;51.816;-0.026;2023-02-28T01:59:42;0.00;0.00;0.00
69222;PMS7003;56514;51.816;-0.026;2023-02-28T02:02:53;0.00;0.00;0.00
69222;PMS7003;56514;51.816;-0.026;2023-02-28T02:05:41;0.00;0.00;0.00
69222;PMS7003;56514;51.816;-0.026;2023-02-28T02:08:26;0.00;0.00;0.00
69222;PMS7003;56514;51.816;-0.026;2023-02-28T02:11:13;1.00;1.00;0.33
69222;PMS7003;56514;51.816;-0.026;2023-02-28T02:14:28;1.50;1.50;1.50
69222;PMS7003;56514;51.816;-0.026;2023-02-28T02:33:23;0.75;0.75;0.75
69222;PMS7003;56514;51.816;-0.026;2023-02-28T02:36:25;1.00;1.00;0.50
69222;PMS7003;56514;51.816;-0.026;2023-02-28T02:39:17;1.00;1.00;1.00
69222;PMS7003;56514;51.816;-0.026;2023-02-28T02:42:14;0.33;0.33;0.33
69222;PMS7003;56514;51.816;-0.026;2023-02-28T02:45:07;1.00;1.00;1.00
69222;PMS7003;56514;51.816;-0.026;2023-02-28T02:47:57;0.25;0.25;0.25
69222;PMS7003;56514;51.816;-0.026;2023-02-28T02:50:54;1.00;1.00;1.00
69222;PMS7003;56514;51.816;-0.026;2023-02-28T02:53:47;1.00;1.00;0.75
69222;PMS7003;56514;51.816;-0.026;2023-02-28T02:56:36;3.00;3.00;2.50
69222;PMS7003;56514;51.816;-0.026;2023-02-28T02:59:26;3.00;1.00;0.00
69222;PMS7003;56514;51.816;-0.026;2023-02-28T03:02:14;1.00;1.00;1.00
69222;PMS7003;56514;51.816;-0.026;2023-02-28T03:05:03;1.00;1.00;1.00
69222;PMS7003;56514;51.816;-0.026;2023-02-28T03:07:53;1.00;1.00;1.00
69222;PMS7003;56514;51.816;-0.026;2023-02-28T03:10:39;1.00;1.00;1.00
69222;PMS7003;56514;51.816;-0.026;2023-02-28T03:17:19;3.00;3.00;3.00
69222;PMS7003;56514;51.816;-0.026;2023-02-28T03:19:57;3.75;3.75;3.00
69222;PMS7003;56514;51.816;-0.026;2023-02-28T03:26:05;5.00;5.00;3.75
69222;PMS7003;56514;51.816;-0.026;2023-02-28T03:29:01;6.75;6.75;4.00
69222;PMS7003;56514;51.816;-0.026;2023-02-28T03:35:14;4.00;4.00;4.00
69222;PMS7003;56514;51.816;-0.026;2023-02-28T03:38:18;8.50;7.00;4.50
69222;PMS7003;56514;51.816;-0.026;2023-02-28T03:41:05;3.75;3.75;3.00
69222;PMS7003;56514;51.816;-0.026;2023-02-28T03:43:59;4.50;3.00;3.00
69222;PMS7003;56514;51.816;-0.026;2023-02-28T03:46:56;4.00;4.00;3.75
69222;PMS7003;56514;51.816;-0.026;2023-02-28T03:49:54;6.00;4.00;4.00
69222;PMS7003;56514;51.816;-0.026;2023-02-28T03:52:57;3.00;3.00;2.00
69222;PMS7003;56514;51.816;-0.026;2023-02-28T03:55:50;3.25;3.25;1.50
69222;PMS7003;56514;51.816;-0.026;2023-02-28T04:01:45;1.00;1.00;0.00
69222;PMS7003;56514;51.816;-0.026;2023-02-28T04:04:32;0.00;0.00;0.00
69222;PMS7003;56514;51.816;-0.026;2023-02-28T04:07:18;1.00;1.00;1.00
69222;PMS7003;56514;51.816;-0.026;2023-02-28T04:10:04;1.00;1.00;1.00
69222;PMS7003;56514;51.816;-0.026;2023-02-28T04:12:49;1.00;1.00;0.00
69222;PMS7003;56514;51.816;-0.026;2023-02-28T04:15:34;1.00;1.00;1.00
69222;PMS7003;56514;51.816;-0.026;2023-02-28T04:18:19;1.00;1.00;1.00
69222;PMS7003;56514;51.816;-0.026;2023-02-28T04:21:05;1.00;1.00;1.00
69222;PMS7003;56514;51.816;-0.026;2023-02-28T04:23:51;0.50;0.50;0.50
69222;PMS7003;56514;51.816;-0.026;2023-02-28T04:26:36;6.75;6.75;4.00
69222;PMS7003;56514;51.816;-0.026;2023-02-28T04:29:23;3.25;3.25;2.00
69222;PMS7003;56514;51.816;-0.026;2023-02-28T04:32:12;3.75;3.75;3.00
69222;PMS7003;56514;51.816;-0.026;2023-02-28T04:34:57;3.25;3.25;2.50
69222;PMS7003;56514;51.816;-0.026;2023-02-28T04:37:42;5.50;5.50;4.00
69222;PMS7003;56514;51.816;-0.026;2023-02-28T04:40:27;3.33;3.33;3.00
69222;PMS7003;56514;51.816;-0.026;2023-02-28T04:43:11;5.50;5.50;3.75
69222;PMS7003;56514;51.816;-0.026;2023-02-28T04:45:57;4.00;4.00;3.25
69222;PMS7003;56514;51.816;-0.026;2023-02-28T04:48:45;4.50;4.50;4.00
69222;PMS7003;56514;51.816;-0.026;2023-02-28T04:51:30;7.25;7.25;4.50
69222;PMS7003;56514;51.816;-0.026;2023-02-28T04:54:14;4.00;4.00;3.00
69222;PMS7003;56514;51.816;-0.026;2023-02-28T04:57:04;2.50;2.50;2.50
69222;PMS7003;56514;51.816;-0.026;2023-02-28T04:59:49;3.25;3.25;3.00
69222;PMS7003;56514;51.816;-0.026;2023-02-28T05:02:34;5.75;5.75;4.00
69222;PMS7003;56514;51.816;-0.026;2023-02-28T05:05:19;4.00;4.00;3.00
69222;PMS7003;56514;51.816;-0.026;2023-02-28T05:08:04;3.00;3.00;3.00
69222;PMS7003;56514;51.816;-0.026;2023-02-28T05:10:49;5.50;4.50;3.00
69222;PMS7003;56514;51.816;-0.026;2023-02-28T05:13:34;3.25;3.25;3.00
69222;PMS7003;56514;51.816;-0.026;2023-02-28T05:16:20;0.75;0.75;0.75
69222;PMS7003;56514;51.816;-0.026;2023-02-28T05:19:04;2.50;2.50;1.00
69222;PMS7003;56514;51.816;-0.026;2023-02-28T05:21:53;3.50;3.50;2.50
69222;PMS7003;56514;51.816;-0.026;2023-02-28T05:24:39;1.00;1.00;1.00
69222;PMS7003;56514;51.816;-0.026;2023-02-28T05:27:24;0.67;0.67;0.67
69222;PMS7003;56514;51.816;-0.026;2023-02-28T05:30:09;0.75;0.75;0.75
69222;PMS7003;56514;51.816;-0.026;2023-02-28T05:32:56;1.50;1.50;1.00
69222;PMS7003;56514;51.816;-0.026;2023-02-28T05:35:41;0.00;0.00;0.00
69222;PMS7003;56514;51.816;-0.026;2023-02-28T05:38:30;3.00;1.00;1.00
69222;PMS7003;56514;51.816;-0.026;2023-02-28T05:41:15;1.00;1.00;0.00
69222;PMS7003;56514;51.816;-0.026;2023-02-28T05:44:03;1.00;1.00;0.75
69222;PMS7003;56514;51.816;-0.026;2023-02-28T05:46:48;1.00;1.00;1.00
69222;PMS7003;56514;51.816;-0.026;2023-02-28T05:49:33;3.00;3.00;3.00
69222;PMS7003;56514;51.816;-0.026;2023-02-28T05:52:18;2.00;2.00;1.00
69222;PMS7003;56514;51.816;-0.026;2023-02-28T05:55:04;0.33;0.33;0.33
69222;PMS7003;56514;51.816;-0.026;2023-02-28T05:57:49;1.00;1.00;0.33
69222;PMS7003;56514;51.816;-0.026;2023-02-28T06:00:34;0.67;0.67;0.67
69222;PMS7003;56514;51.816;-0.026;2023-02-28T06:03:19;2.33;2.33;1.00
69222;PMS7003;56514;51.816;-0.026;2023-02-28T06:06:04;0.00;0.00;0.00
69222;PMS7003;56514;51.816;-0.026;2023-02-28T06:08:49;1.00;1.00;1.00
69222;PMS7003;56514;51.816;-0.026;2023-02-28T06:11:34;1.00;1.00;1.00
69222;PMS7003;56514;51.816;-0.026;2023-02-28T06:14:19;1.00;1.00;1.00
69222;PMS7003;56514;51.816;-0.026;2023-02-28T06:17:05;0.00;0.00;0.00
69222;PMS7003;56514;51.816;-0.026;2023-02-28T06:19:50;1.00;1.00;1.00
69222;PMS7003;56514;51.816;-0.026;2023-02-28T06:22:35;3.00;3.00;1.00
69222;PMS7003;56514;51.816;-0.026;2023-02-28T06:25:21;1.00;1.00;1.00
69222;PMS7003;56514;51.816;-0.026;2023-02-28T06:28:06;1.67;1.67;1.00
69222;PMS7003;56514;51.816;-0.026;2023-02-28T06:30:51;0.75;0.75;0.50
69222;PMS7003;56514;51.816;-0.026;2023-02-28T06:33:37;1.00;1.00;0.67
69222;PMS7003;56514;51.816;-0.026;2023-02-28T06:36:23;3.00;3.00;1.67
69222;PMS7003;56514;51.816;-0.026;2023-02-28T06:39:10;3.00;3.00;1.67
69222;PMS7003;56514;51.816;-0.026;2023-02-28T06:41:55;3.00;3.00;0.25
69222;PMS7003;56514;51.816;-0.026;2023-02-28T06:44:40;0.00;0.00;0.00
69222;PMS7003;56514;51.816;-0.026;2023-02-28T06:47:27;0.00;0.00;0.00
69222;PMS7003;56514;51.816;-0.026;2023-02-28T06:50:12;1.00;1.00;1.00
69222;PMS7003;56514;51.816;-0.026;2023-02-28T06:52:57;5.00;5.00;5.00
69222;PMS7003;56514;51.816;-0.026;2023-02-28T06:55:42;3.75;3.75;3.00
69222;PMS7003;56514;51.816;-0.026;2023-02-28T06:58:27;22.00;22.00;20.75
69222;PMS7003;56514;51.816;-0.026;2023-02-28T07:01:13;8.50;8.50;7.00
69222;PMS7003;56514;51.816;-0.026;2023-02-28T07:03:58;11.25;11.25;9.50
69222;PMS7003;56514;51.816;-0.026;2023-02-28T07:06:44;11.00;11.00;8.50
69222;PMS7003;56514;51.816;-0.026;2023-02-28T07:09:29;8.00;8.00;6.25
69222;PMS7003;56514;51.816;-0.026;2023-02-28T07:12:14;6.67;6.67;6.00
69222;PMS7003;56514;51.816;-0.026;2023-02-28T07:14:59;4.67;4.67;3.67
69222;PMS7003;56514;51.816;-0.026;2023-02-28T07:17:45;0.00;0.00;0.00
69222;PMS7003;56514;51.816;-0.026;2023-02-28T07:20:30;1.00;1.00;1.00
69222;PMS7003;56514;51.816;-0.026;2023-02-28T07:23:15;6.00;6.00;4.00
69222;PMS7003;56514;51.816;-0.026;2023-02-28T07:26:04;1.00;1.00;1.00
69222;PMS7003;56514;51.816;-0.026;2023-02-28T07:28:51;3.00;3.00;1.00
69222;PMS7003;56514;51.816;-0.026;2023-02-28T07:31:35;0.33;0.33;0.33
69222;PMS7003;56514;51.816;-0.026;2023-02-28T07:34:21;1.00;1.00;1.00
69222;PMS7003;56514;51.816;-0.026;2023-02-28T07:37:06;1.00;1.00;0.00
69222;PMS7003;56514;51.816;-0.026;2023-02-28T07:39:51;0.67;0.67;0.67
69222;PMS7003;56514;51.816;-0.026;2023-02-28T07:42:36;3.00;3.00;1.67
69222;PMS7003;56514;51.816;-0.026;2023-02-28T07:45:22;0.00;0.00;0.00
69222;PMS7003;56514;51.816;-0.026;2023-02-28T07:48:06;1.00;1.00;0.00
69222;PMS7003;56514;51.816;-0.026;2023-02-28T07:50:57;0.00;0.00;0.00
69222;PMS7003;56514;51.816;-0.026;2023-02-28T07:53:44;1.00;1.00;1.00
69222;PMS7003;56514;51.816;-0.026;2023-02-28T07:56:29;3.33;3.33;3.00
69222;PMS7003;56514;51.816;-0.026;2023-02-28T07:59:13;1.00;1.00;1.00
69222;PMS7003;56514;51.816;-0.026;2023-02-28T08:01:58;0.00;0.00;0.00
69222;PMS7003;56514;51.816;-0.026;2023-02-28T08:04:43;1.00;1.00;0.00
69222;PMS7003;56514;51.816;-0.026;2023-02-28T08:07:29;0.00;0.00;0.00
69222;PMS7003;56514;51.816;-0.026;2023-02-28T08:10:14;1.00;1.00;0.00
69222;PMS7003;56514;51.816;-0.026;2023-02-28T08:12:59;0.00;0.00;0.00
69222;PMS7003;56514;51.816;-0.026;2023-02-28T08:15:47;0.00;0.00;0.00
69222;PMS7003;56514;51.816;-0.026;2023-02-28T08:18:32;0.00;0.00;0.00
69222;PMS7003;56514;51.816;-0.026;2023-02-28T08:21:17;0.00;0.00;0.00
69222;PMS7003;56514;51.816;-0.026;2023-02-28T08:24:04;0.00;0.00;0.00
69222;PMS7003;56514;51.816;-0.026;2023-02-28T08:26:50;0.00;0.00;0.00
69222;PMS7003;56514;51.816;-0.026;2023-02-28T08:29:38;0.00;0.00;0.00
69222;PMS7003;56514;51.816;-0.026;2023-02-28T08:32:23;0.00;0.00;0.00
69222;PMS7003;56514;51.816;-0.026;2023-02-28T08:35:08;0.00;0.00;0.00
69222;PMS7003;56514;51.816;-0.026;2023-02-28T08:37:54;0.00;0.00;0.00
69222;PMS7003;56514;51.816;-0.026;2023-02-28T08:40:39;0.00;0.00;0.00
69222;PMS7003;56514;51.816;-0.026;2023-02-28T08:43:24;0.00;0.00;0.00
69222;PMS7003;56514;51.816;-0.026;2023-02-28T08:46:13;0.50;0.50;0.00
69222;PMS7003;56514;51.816;-0.026;2023-02-28T08:48:58;0.25;0.25;0.00
69222;PMS7003;56514;51.816;-0.026;2023-02-28T08:51:45;0.00;0.00;0.00
69222;PMS7003;56514;51.816;-0.026;2023-02-28T08:54:30;0.00;0.00;0.00
69222;PMS7003;56514;51.816;-0.026;2023-02-28T08:57:17;0.00;0.00;0.00
69222;PMS7003;56514;51.816;-0.026;2023-02-28T09:00:04;0.25;0.25;0.00
69222;PMS7003;56514;51.816;-0.026;2023-02-28T09:02:49;0.00;0.00;0.00
69222;PMS7003;56514;51.816;-0.026;2023-02-28T09:05:34;0.00;0.00;0.00
69222;PMS7003;56514;51.816;-0.026;2023-02-28T09:08:19;1.25;1.25;0.50
69222;PMS7003;56514;51.816;-0.026;2023-02-28T09:11:05;0.00;0.00;0.00
69222;PMS7003;56514;51.816;-0.026;2023-02-28T09:13:50;0.00;0.00;0.00
69222;PMS7003;56514;51.816;-0.026;2023-02-28T09:16:35;0.00;0.00;0.00
69222;PMS7003;56514;51.816;-0.026;2023-02-28T09:19:20;0.00;0.00;0.00
69222;PMS7003;56514;51.816;-0.026;2023-02-28T09:22:05;0.00;0.00;0.00
69222;PMS7003;56514;51.816;-0.026;2023-02-28T09:24:50;0.00;0.00;0.00
69222;PMS7003;56514;51.816;-0.026;2023-02-28T09:27:35;0.00;0.00;0.00
69222;PMS7003;56514;51.816;-0.026;2023-02-28T09:30:21;0.00;0.00;0.00
69222;PMS7003;56514;51.816;-0.026;2023-02-28T09:33:06;0.25;0.25;0.25
69222;PMS7003;56514;51.816;-0.026;2023-02-28T09:35:52;1.00;1.00;0.25
69222;PMS7003;56514;51.816;-0.026;2023-02-28T09:38:43;0.00;0.00;0.00
69222;PMS7003;56514;51.816;-0.026;2023-02-28T09:41:33;0.00;0.00;0.00
69222;PMS7003;56514;51.816;-0.026;2023-02-28T09:44:34;0.00;0.00;0.00
69222;PMS7003;56514;51.816;-0.026;2023-02-28T09:50:22;0.00;0.00;0.00
69222;PMS7003;56514;51.816;-0.026;2023-02-28T09:53:14;0.00;0.00;0.00
69222;PMS7003;56514;51.816;-0.026;2023-02-28T09:56:11;0.25;0.25;0.00
69222;PMS7003;56514;51.816;-0.026;2023-02-28T10:02:52;0.00;0.00;0.00
69222;PMS7003;56514;51.816;-0.026;2023-02-28T10:09:03;0.25;0.25;0.00
69222;PMS7003;56514;51.816;-0.026;2023-02-28T10:11:54;1.00;1.00;0.00
69222;PMS7003;56514;51.816;-0.026;2023-02-28T10:14:45;1.00;1.00;1.00
69222;PMS7003;56514;51.816;-0.026;2023-02-28T10:17:37;1.00;1.00;1.00
69222;PMS7003;56514;51.816;-0.026;2023-02-28T10:20:25;0.75;0.75;0.75
69222;PMS7003;56514;51.816;-0.026;2023-02-28T10:23:17;2.00;2.00;1.00
69222;PMS7003;56514;51.816;-0.026;2023-02-28T10:26:14;1.50;1.50;1.00
69222;PMS7003;56514;51.816;-0.026;2023-02-28T10:29:07;0.00;0.00;0.00
69222;PMS7003;56514;51.816;-0.026;2023-02-28T10:31:53;0.00;0.00;0.00
69222;PMS7003;56514;51.816;-0.026;2023-02-28T10:34:37;0.00;0.00;0.00
69222;PMS7003;56514;51.816;-0.026;2023-02-28T10:37:22;0.00;0.00;0.00
69222;PMS7003;56514;51.816;-0.026;2023-02-28T10:43:05;0.00;0.00;0.00
69222;PMS7003;56514;51.816;-0.026;2023-02-28T10:49:01;0.00;0.00;0.00
69222;PMS7003;56514;51.816;-0.026;2023-02-28T10:52:00;0.00;0.00;0.00
69222;PMS7003;56514;51.816;-0.026;2023-02-28T10:54:45;0.00;0.00;0.00
69222;PMS7003;56514;51.816;-0.026;2023-02-28T10:57:30;0.25;0.25;0.25
69222;PMS7003;56514;51.816;-0.026;2023-02-28T11:00:19;0.00;0.00;0.00
69222;PMS7003;56514;51.816;-0.026;2023-02-28T11:03:11;0.00;0.00;0.00
69222;PMS7003;56514;51.816;-0.026;2023-02-28T11:06:30;0.50;0.50;0.50
69222;PMS7003;56514;51.816;-0.026;2023-02-28T11:09:26;0.50;0.50;0.50
69222;PMS7003;56514;51.816;-0.026;2023-02-28T11:12:22;0.25;0.25;0.00
69222;PMS7003;56514;51.816;-0.026;2023-02-28T11:15:27;0.50;0.50;0.50
69222;PMS7003;56514;51.816;-0.026;2023-02-28T11:21:22;1.00;1.00;0.25
69222;PMS7003;56514;51.816;-0.026;2023-02-28T11:24:30;0.25;0.25;0.25
69222;PMS7003;56514;51.816;-0.026;2023-02-28T11:27:26;0.25;0.25;0.25
69222;PMS7003;56514;51.816;-0.026;2023-02-28T11:30:31;0.00;0.00;0.00
69222;PMS7003;56514;51.816;-0.026;2023-02-28T11:33:22;3.00;3.00;0.00
69222;PMS7003;56514;51.816;-0.026;2023-02-28T11:39:08;0.50;0.50;0.50
69222;PMS7003;56514;51.816;-0.026;2023-02-28T12:00:03;0.50;0.50;0.00
69222;PMS7003;56514;51.816;-0.026;2023-02-28T12:12:34;0.25;0.25;0.25
69222;PMS7003;56514;51.816;-0.026;2023-02-28T12:15:54;0.00;0.00;0.00
69222;PMS7003;56514;51.816;-0.026;2023-02-28T12:22:43;0.00;0.00;0.00
69222;PMS7003;56514;51.816;-0.026;2023-02-28T12:25:39;0.00;0.00;0.00
69222;PMS7003;56514;51.816;-0.026;2023-02-28T12:28:50;0.00;0.00;0.00
69222;PMS7003;56514;51.816;-0.026;2023-02-28T12:31:41;0.00;0.00;0.00
69222;PMS7003;56514;51.816;-0.026;2023-02-28T12:34:38;1.00;1.00;0.25
69222;PMS7003;56514;51.816;-0.026;2023-02-28T12:37:29;0.00;0.00;0.00
69222;PMS7003;56514;51.816;-0.026;2023-02-28T12:40:20;0.75;0.75;0.75
69222;PMS7003;56514;51.816;-0.026;2023-02-28T12:43:07;1.00;1.00;1.00
69222;PMS7003;56514;51.816;-0.026;2023-02-28T12:49:16;0.00;0.00;0.00
69222;PMS7003;56514;51.816;-0.026;2023-02-28T12:52:07;0.75;0.75;0.75
69222;PMS7003;56514;51.816;-0.026;2023-02-28T12:57:57;0.00;0.00;0.00
69222;PMS7003;56514;51.816;-0.026;2023-02-28T13:10:45;0.00;0.00;0.00
69222;PMS7003;56514;51.816;-0.026;2023-02-28T13:13:32;0.00;0.00;0.00
69222;PMS7003;56514;51.816;-0.026;2023-02-28T13:16:17;0.00;0.00;0.00
69222;PMS7003;56514;51.816;-0.026;2023-02-28T13:19:09;0.00;0.00;0.00
69222;PMS7003;56514;51.816;-0.026;2023-02-28T13:21:56;0.00;0.00;0.00
69222;PMS7003;56514;51.816;-0.026;2023-02-28T13:24:47;0.00;0.00;0.00
69222;PMS7003;56514;51.816;-0.026;2023-02-28T13:27:40;0.00;0.00;0.00
69222;PMS7003;56514;51.816;-0.026;2023-02-28T13:34:23;0.00;0.00;0.00
69222;PMS7003;56514;51.816;-0.026;2023-02-28T13:36:43;0.00;0.00;0.00
69222;PMS7003;56514;51.816;-0.026;2023-02-28T13:47:52;0.00;0.00;0.00
69222;PMS7003;56514;51.816;-0.026;2023-02-28T13:50:41;0.00;0.00;0.00
69222;PMS7003;56514;51.816;-0.026;2023-02-28T13:53:49;0.00;0.00;0.00
69222;PMS7003;56514;51.816;-0.026;2023-02-28T14:03:26;0.00;0.00;0.00
69222;PMS7003;56514;51.816;-0.026;2023-02-28T14:09:28;0.00;0.00;0.00
69222;PMS7003;56514;51.816;-0.026;2023-02-28T14:18:42;0.00;0.00;0.00
69222;PMS7003;56514;51.816;-0.026;2023-02-28T14:21:35;0.00;0.00;0.00
69222;PMS7003;56514;51.816;-0.026;2023-02-28T14:38:57;0.00;0.00;0.00
69222;PMS7003;56514;51.816;-0.026;2023-02-28T14:41:46;0.00;0.00;0.00
69222;PMS7003;56514;51.816;-0.026;2023-02-28T14:44:31;0.00;0.00;0.00
69222;PMS7003;56514;51.816;-0.026;2023-02-28T14:47:16;0.00;0.00;0.00
69222;PMS7003;56514;51.816;-0.026;2023-02-28T14:50:04;0.00;0.00;0.00
69222;PMS7003;56514;51.816;-0.026;2023-02-28T14:52:53;0.00;0.00;0.00
69222;PMS7003;56514;51.816;-0.026;2023-02-28T14:55:43;0.25;0.00;0.00
69222;PMS7003;56514;51.816;-0.026;2023-02-28T14:58:30;0.00;0.00;0.00
69222;PMS7003;56514;51.816;-0.026;2023-02-28T15:01:18;0.00;0.00;0.00
69222;PMS7003;56514;51.816;-0.026;2023-02-28T15:04:06;0.00;0.00;0.00
69222;PMS7003;56514;51.816;-0.026;2023-02-28T15:07:14;0.00;0.00;0.00
69222;PMS7003;56514;51.816;-0.026;2023-02-28T15:13:10;0.00;0.00;0.00
69222;PMS7003;56514;51.816;-0.026;2023-02-28T15:15:57;0.00;0.00;0.00
69222;PMS7003;56514;51.816;-0.026;2023-02-28T15:18:47;0.00;0.00;0.00
69222;PMS7003;56514;51.816;-0.026;2023-02-28T15:21:34;0.00;0.00;0.00
69222;PMS7003;56514;51.816;-0.026;2023-02-28T15:24:39;0.00;0.00;0.00
69222;PMS7003;56514;51.816;-0.026;2023-02-28T15:27:28;0.00;0.00;0.00
69222;PMS7003;56514;51.816;-0.026;2023-02-28T15:30:17;0.00;0.00;0.00
69222;PMS7003;56514;51.816;-0.026;2023-02-28T15:33:22;0.00;0.00;0.00
69222;PMS7003;56514;51.816;-0.026;2023-02-28T15:36:14;0.00;0.00;0.00
69222;PMS7003;56514;51.816;-0.026;2023-02-28T15:39:21;0.00;0.00;0.00
69222;PMS7003;56514;51.816;-0.026;2023-02-28T15:42:12;0.00;0.00;0.00
69222;PMS7003;56514;51.816;-0.026;2023-02-28T15:45:04;0.00;0.00;0.00
69222;PMS7003;56514;51.816;-0.026;2023-02-28T15:47:49;0.00;0.00;0.00
69222;PMS7003;56514;51.816;-0.026;2023-02-28T15:50:35;0.00;0.00;0.00
69222;PMS7003;56514;51.816;-0.026;2023-02-28T15:53:28;0.00;0.00;0.00
69222;PMS7003;56514;51.816;-0.026;2023-02-28T15:56:23;0.00;0.00;0.00
69222;PMS7003;56514;51.816;-0.026;2023-02-28T15:59:14;0.00;0.00;0.00
69222;PMS7003;56514;51.816;-0.026;2023-02-28T16:07:43;0.00;0.00;0.00
69222;PMS7003;56514;51.816;-0.026;2023-02-28T16:10:28;0.00;0.00;0.00
69222;PMS7003;56514;51.816;-0.026;2023-02-28T16:13:13;0.00;0.00;0.00
69222;PMS7003;56514;51.816;-0.026;2023-02-28T16:16:00;0.00;0.00;0.00
69222;PMS7003;56514;51.816;-0.026;2023-02-28T16:18:46;0.00;0.00;0.00
69222;PMS7003;56514;51.816;-0.026;2023-02-28T16:21:31;0.00;0.00;0.00
69222;PMS7003;56514;51.816;-0.026;2023-02-28T16:24:16;0.00;0.00;0.00
69222;PMS7003;56514;51.816;-0.026;2023-02-28T16:27:04;0.00;0.00;0.00
69222;PMS7003;56514;51.816;-0.026;2023-02-28T16:29:49;0.00;0.00;0.00
69222;PMS7003;56514;51.816;-0.026;2023-02-28T16:32:34;0.00;0.00;0.00
69222;PMS7003;56514;51.816;-0.026;2023-02-28T16:35:21;0.00;0.00;0.00
69222;PMS7003;56514;51.816;-0.026;2023-02-28T16:38:06;0.00;0.00;0.00
69222;PMS7003;56514;51.816;-0.026;2023-02-28T16:40:51;0.00;0.00;0.00
69222;PMS7003;56514;51.816;-0.026;2023-02-28T16:43:40;0.00;0.00;0.00
69222;PMS7003;56514;51.816;-0.026;2023-02-28T16:46:44;0.00;0.00;0.00
69222;PMS7003;56514;51.816;-0.026;2023-02-28T16:49:28;0.00;0.00;0.00
69222;PMS7003;56514;51.816;-0.026;2023-02-28T16:52:14;0.00;0.00;0.00
69222;PMS7003;56514;51.816;-0.026;2023-02-28T16:55:00;0.00;0.00;0.00
69222;PMS7003;56514;51.816;-0.026;2023-02-28T16:57:44;0.00;0.00;0.00
69222;PMS7003;56514;51.816;-0.026;2023-02-28T17:00:36;0.00;0.00;0.00
69222;PMS7003;56514;51.816;-0.026;2023-02-28T17:03:23;0.00;0.00;0.00
69222;PMS7003;56514;51.816;-0.026;2023-02-28T17:06:43;0.00;0.00;0.00
69222;PMS7003;56514;51.816;-0.026;2023-02-28T17:09:21;0.00;0.00;0.00
69222;PMS7003;56514;51.816;-0.026;2023-02-28T17:12:08;0.00;0.00;0.00
69222;PMS7003;56514;51.816;-0.026;2023-02-28T17:14:53;0.00;0.00;0.00
69222;PMS7003;56514;51.816;-0.026;2023-02-28T17:17:39;0.00;0.00;0.00
69222;PMS7003;56514;51.816;-0.026;2023-02-28T17:20:25;0.00;0.00;0.00
69222;PMS7003;56514;51.816;-0.026;2023-02-28T17:23:11;0.00;0.00;0.00
69222;PMS7003;56514;51.816;-0.026;2023-02-28T17:25:56;0.00;0.00;0.00
69222;PMS7003;56514;51.816;-0.026;2023-02-28T17:28:41;0.00;0.00;0.00
69222;PMS7003;56514;51.816;-0.026;2023-02-28T17:31:26;0.00;0.00;0.00
69222;PMS7003;56514;51.816;-0.026;2023-02-28T17:34:12;0.00;0.00;0.00
69222;PMS7003;56514;51.816;-0.026;2023-02-28T17:37:03;0.00;0.00;0.00
69222;PMS7003;56514;51.816;-0.026;2023-02-28T17:39:48;0.00;0.00;0.00
69222;PMS7003;56514;51.816;-0.026;2023-02-28T17:42:33;0.00;0.00;0.00
69222;PMS7003;56514;51.816;-0.026;2023-02-28T17:45:18;0.00;0.00;0.00
69222;PMS7003;56514;51.816;-0.026;2023-02-28T17:48:05;0.00;0.00;0.00
69222;PMS7003;56514;51.816;-0.026;2023-02-28T17:50:50;0.00;0.00;0.00
69222;PMS7003;56514;51.816;-0.026;2023-02-28T17:53:36;0.00;0.00;0.00
69222;PMS7003;56514;51.816;-0.026;2023-02-28T17:56:21;0.00;0.00;0.00
69222;PMS7003;56514;51.816;-0.026;2023-02-28T17:59:08;0.00;0.00;0.00
69222;PMS7003;56514;51.816;-0.026;2023-02-28T18:01:55;0.00;0.00;0.00
69222;PMS7003;56514;51.816;-0.026;2023-02-28T18:04:39;0.00;0.00;0.00
69222;PMS7003;56514;51.816;-0.026;2023-02-28T18:07:26;0.00;0.00;0.00
69222;PMS7003;56514;51.816;-0.026;2023-02-28T18:10:16;0.00;0.00;0.00
69222;PMS7003;56514;51.816;-0.026;2023-02-28T18:13:05;0.00;0.00;0.00
69222;PMS7003;56514;51.816;-0.026;2023-02-28T18:15:51;0.00;0.00;0.00
69222;PMS7003;56514;51.816;-0.026;2023-02-28T18:18:36;0.00;0.00;0.00
69222;PMS7003;56514;51.816;-0.026;2023-02-28T18:21:21;0.00;0.00;0.00
69222;PMS7003;56514;51.816;-0.026;2023-02-28T18:24:07;0.00;0.00;0.00
69222;PMS7003;56514;51.816;-0.026;2023-02-28T18:26:52;0.00;0.00;0.00
69222;PMS7003;56514;51.816;-0.026;2023-02-28T18:29:37;0.00;0.00;0.00
69222;PMS7003;56514;51.816;-0.026;2023-02-28T18:32:22;0.00;0.00;0.00
69222;PMS7003;56514;51.816;-0.026;2023-02-28T18:35:08;0.00;0.00;0.00
69222;PMS7003;56514;51.816;-0.026;2023-02-28T18:37:53;0.00;0.00;0.00
69222;PMS7003;56514;51.816;-0.026;2023-02-28T18:40:38;0.00;0.00;0.00
69222;PMS7003;56514;51.816;-0.026;2023-02-28T18:43:25;0.00;0.00;0.00
69222;PMS7003;56514;51.816;-0.026;2023-02-28T18:46:13;0.00;0.00;0.00